NDF702W EDDM-EDDK
Flight info
| Callsign | NDF702W |
|---|---|
| Flight time | N/A |
| Altitude | 24000 |
| Route | GIVMI6E GIVMI Y101 ERNAS T161 GOLMO DCT AKANU L603 RATIM DCT ASKIK T840 GULKO GULKO1D |
| Aircraft | A319/M-SDE3FGHIRWY/LB1 |
Departure
| Time | 2026-05-04 14:16 |
|---|---|
| Airport | Munich Airport (EDDM) |
Arrival
| Time | N/A |
|---|---|
| Airport | Cologne Bonn Airport (EDDK) |
| Time | Latitude | Longitude | Altitude | Speed | Heading |
|---|---|---|---|---|---|
| 2026-05-04 13:50 | 48.35587 | 11.79996 | 1473 ft | 0 kts | 264° |
| 2026-05-04 13:57 | 48.35587 | 11.79997 | 1486 ft | 0 kts | 264° |
| 2026-05-04 14:06 | 48.35587 | 11.79998 | 1513 ft | 1 kts | 264° |
| 2026-05-04 14:06 | 48.35589 | 11.80022 | 1471 ft | 3 kts | 264° |
| 2026-05-04 14:07 | 48.35592 | 11.80051 | 1476 ft | 3 kts | 266° |
| 2026-05-04 14:07 | 48.35589 | 11.80075 | 1473 ft | 3 kts | 333° |
| 2026-05-04 14:07 | 48.35580 | 11.80081 | 1472 ft | 1 kts | 353° |
| 2026-05-04 14:07 | 48.35563 | 11.80084 | 1473 ft | 1 kts | 353° |
| 2026-05-04 14:08 | 48.35561 | 11.80084 | 1478 ft | 1 kts | 353° |
| 2026-05-04 14:10 | 48.35606 | 11.80077 | 1472 ft | 7 kts | 353° |
| 2026-05-04 14:10 | 48.35658 | 11.80069 | 1485 ft | 9 kts | 359° |
| 2026-05-04 14:10 | 48.35723 | 11.80077 | 1477 ft | 10 kts | 353° |
| 2026-05-04 14:10 | 48.35802 | 11.80063 | 1483 ft | 12 kts | 353° |
| 2026-05-04 14:11 | 48.35850 | 11.79976 | 1479 ft | 13 kts | 270° |
| 2026-05-04 14:11 | 48.35828 | 11.79681 | 1485 ft | 14 kts | 264° |
| 2026-05-04 14:11 | 48.35823 | 11.79531 | 1485 ft | 13 kts | 289° |
| 2026-05-04 14:12 | 48.35907 | 11.79512 | 1476 ft | 13 kts | 357° |
| 2026-05-04 14:12 | 48.35996 | 11.79496 | 1486 ft | 13 kts | 353° |
| 2026-05-04 14:12 | 48.36193 | 11.79451 | 1475 ft | 15 kts | 328° |
| 2026-05-04 14:13 | 48.36201 | 11.79310 | 1485 ft | 14 kts | 263° |
| 2026-05-04 14:13 | 48.36189 | 11.79155 | 1482 ft | 15 kts | 263° |
| 2026-05-04 14:13 | 48.36177 | 11.78993 | 1475 ft | 17 kts | 263° |
| 2026-05-04 14:13 | 48.36163 | 11.78807 | 1478 ft | 19 kts | 263° |
| 2026-05-04 14:14 | 48.36147 | 11.78603 | 1480 ft | 20 kts | 264° |
| 2026-05-04 14:14 | 48.36288 | 11.78681 | 1481 ft | 17 kts | 53° |
| 2026-05-04 14:14 | 48.36363 | 11.78833 | 1481 ft | 19 kts | 53° |
| 2026-05-04 14:15 | 48.36480 | 11.79389 | 1485 ft | 64 kts | 83° |
| 2026-05-04 14:15 | 48.36672 | 11.81920 | 1666 ft | 155 kts | 83° |
| 2026-05-04 14:16 | 48.36974 | 11.85113 | 2936 ft | 158 kts | 67° |
| 2026-05-04 14:16 | 48.37722 | 11.86407 | 3364 ft | 179 kts | 29° |
| 2026-05-04 14:17 | 48.40531 | 11.86729 | 4003 ft | 233 kts | 357° |
| 2026-05-04 14:17 | 48.42147 | 11.85928 | 4485 ft | 261 kts | 322° |
| 2026-05-04 14:17 | 48.44669 | 11.81711 | 6320 ft | 277 kts | 309° |
| 2026-05-04 14:18 | 48.45921 | 11.79454 | 7259 ft | 281 kts | 308° |
| 2026-05-04 14:18 | 48.48473 | 11.74886 | 9176 ft | 289 kts | 307° |
| 2026-05-04 14:19 | 48.51113 | 11.70205 | 10942 ft | 297 kts | 307° |
| 2026-05-04 14:19 | 48.52466 | 11.67814 | 11775 ft | 302 kts | 307° |
| 2026-05-04 14:19 | 48.53842 | 11.65379 | 12612 ft | 307 kts | 307° |
| 2026-05-04 14:19 | 48.55235 | 11.62910 | 13517 ft | 311 kts | 307° |
| 2026-05-04 14:20 | 48.56651 | 11.60400 | 14291 ft | 316 kts | 307° |
| 2026-05-04 14:20 | 48.58095 | 11.57839 | 14814 ft | 329 kts | 307° |
| 2026-05-04 14:20 | 48.59629 | 11.55107 | 15051 ft | 350 kts | 307° |
| 2026-05-04 14:21 | 48.62846 | 11.49396 | 16325 ft | 362 kts | 307° |
| 2026-05-04 14:21 | 48.64484 | 11.46493 | 17027 ft | 365 kts | 307° |
| 2026-05-04 14:21 | 48.66138 | 11.43561 | 17732 ft | 368 kts | 307° |
| 2026-05-04 14:21 | 48.67810 | 11.40593 | 18405 ft | 372 kts | 307° |
| 2026-05-04 14:22 | 48.69498 | 11.37669 | 19013 ft | 376 kts | 311° |
| 2026-05-04 14:22 | 48.71532 | 11.35046 | 19666 ft | 383 kts | 322° |
| 2026-05-04 14:22 | 48.73727 | 11.32823 | 20289 ft | 386 kts | 323° |
| 2026-05-04 14:22 | 48.75996 | 11.30537 | 20922 ft | 388 kts | 323° |
| 2026-05-04 14:23 | 48.80493 | 11.25985 | 22153 ft | 394 kts | 323° |
| 2026-05-04 14:23 | 48.82779 | 11.23664 | 22770 ft | 396 kts | 322° |
| 2026-05-04 14:23 | 48.85007 | 11.21195 | 23368 ft | 396 kts | 315° |
| 2026-05-04 14:24 | 48.87074 | 11.18339 | 23817 ft | 398 kts | 314° |
| 2026-05-04 14:24 | 48.89090 | 11.15530 | 23942 ft | 397 kts | 314° |
| 2026-05-04 14:24 | 48.91121 | 11.12704 | 23976 ft | 382 kts | 314° |
| 2026-05-04 14:24 | 48.93034 | 11.10044 | 23977 ft | 374 kts | 314° |
| 2026-05-04 14:25 | 48.94868 | 11.07285 | 23982 ft | 369 kts | 306° |
| 2026-05-04 14:25 | 48.97352 | 11.00613 | 23990 ft | 360 kts | 285° |
| 2026-05-04 14:25 | 48.98154 | 10.96998 | 23991 ft | 360 kts | 285° |
| 2026-05-04 14:26 | 48.98961 | 10.93386 | 23999 ft | 360 kts | 285° |
| 2026-05-04 14:26 | 48.99772 | 10.89773 | 24002 ft | 360 kts | 285° |
| 2026-05-04 14:26 | 49.00583 | 10.86162 | 24004 ft | 360 kts | 285° |
| 2026-05-04 14:26 | 49.01388 | 10.82556 | 24006 ft | 360 kts | 285° |
| 2026-05-04 14:27 | 49.02189 | 10.78938 | 24012 ft | 360 kts | 285° |
| 2026-05-04 14:27 | 49.02986 | 10.75313 | 24013 ft | 360 kts | 285° |
| 2026-05-04 14:27 | 49.03779 | 10.71703 | 24014 ft | 360 kts | 285° |
| 2026-05-04 14:27 | 49.04664 | 10.68112 | 24011 ft | 362 kts | 292° |
| 2026-05-04 14:28 | 49.05974 | 10.64817 | 24009 ft | 367 kts | 303° |
| 2026-05-04 14:28 | 49.07708 | 10.61929 | 24009 ft | 371 kts | 313° |
| 2026-05-04 14:28 | 49.09563 | 10.59211 | 24008 ft | 371 kts | 312° |
| 2026-05-04 14:28 | 49.11419 | 10.56472 | 24003 ft | 371 kts | 312° |
| 2026-05-04 14:29 | 49.15123 | 10.50969 | 24003 ft | 371 kts | 312° |
| 2026-05-04 14:29 | 49.18861 | 10.45389 | 24016 ft | 389 kts | 311° |
| 2026-05-04 14:30 | 49.20842 | 10.42417 | 24016 ft | 408 kts | 312° |
| 2026-05-04 14:30 | 49.22913 | 10.39317 | 24011 ft | 424 kts | 312° |
| 2026-05-04 14:30 | 49.26855 | 10.32265 | 24010 ft | 448 kts | 306° |
| 2026-05-04 14:31 | 49.28854 | 10.28526 | 24007 ft | 458 kts | 306° |
| 2026-05-04 14:31 | 49.32971 | 10.20802 | 24002 ft | 476 kts | 306° |
| 2026-05-04 14:32 | 49.37174 | 10.12902 | 24003 ft | 482 kts | 306° |
| 2026-05-04 14:32 | 49.39296 | 10.08909 | 24001 ft | 483 kts | 306° |
| 2026-05-04 14:32 | 49.41412 | 10.04914 | 24000 ft | 483 kts | 306° |
| 2026-05-04 14:32 | 49.43535 | 10.00897 | 24003 ft | 483 kts | 306° |
| 2026-05-04 14:33 | 49.45647 | 9.96890 | 24002 ft | 482 kts | 306° |
| 2026-05-04 14:33 | 49.47076 | 9.94180 | 24005 ft | 483 kts | 306° |
| 2026-05-04 14:33 | 49.49876 | 9.88874 | 23998 ft | 482 kts | 306° |
| 2026-05-04 14:33 | 49.51985 | 9.84868 | 23998 ft | 482 kts | 306° |
| 2026-05-04 14:34 | 49.54095 | 9.80848 | 23990 ft | 482 kts | 306° |
| 2026-05-04 14:34 | 49.56199 | 9.76825 | 23988 ft | 482 kts | 305° |
| 2026-05-04 14:34 | 49.58303 | 9.72796 | 23981 ft | 482 kts | 305° |
| 2026-05-04 14:34 | 49.60404 | 9.68773 | 23979 ft | 482 kts | 305° |
| 2026-05-04 14:35 | 49.62507 | 9.64740 | 23981 ft | 482 kts | 305° |
| 2026-05-04 14:35 | 49.64613 | 9.60696 | 23978 ft | 482 kts | 305° |
| 2026-05-04 14:35 | 49.66719 | 9.56644 | 23975 ft | 482 kts | 305° |
| 2026-05-04 14:35 | 49.68802 | 9.52614 | 23974 ft | 481 kts | 303° |
| 2026-05-04 14:36 | 49.70580 | 9.48273 | 23974 ft | 478 kts | 296° |
| 2026-05-04 14:36 | 49.72249 | 9.43804 | 23804 ft | 479 kts | 296° |
| 2026-05-04 14:36 | 49.73907 | 9.39338 | 23522 ft | 480 kts | 296° |
| 2026-05-04 14:36 | 49.75566 | 9.34844 | 23253 ft | 481 kts | 296° |
| 2026-05-04 14:37 | 49.77216 | 9.30369 | 22977 ft | 480 kts | 296° |
| 2026-05-04 14:37 | 49.78871 | 9.25882 | 22707 ft | 479 kts | 296° |
| 2026-05-04 14:37 | 49.80523 | 9.21403 | 22448 ft | 478 kts | 296° |
| 2026-05-04 14:37 | 49.82149 | 9.16998 | 22183 ft | 476 kts | 296° |
| 2026-05-04 14:38 | 49.83802 | 9.12519 | 21916 ft | 471 kts | 296° |
| 2026-05-04 14:38 | 49.85405 | 9.08180 | 21661 ft | 450 kts | 296° |
| 2026-05-04 14:38 | 49.86404 | 9.05478 | 21486 ft | 439 kts | 296° |
| 2026-05-04 14:38 | 49.87893 | 9.01431 | 21226 ft | 423 kts | 296° |
| 2026-05-04 14:39 | 49.89314 | 8.97546 | 20986 ft | 409 kts | 296° |
| 2026-05-04 14:39 | 49.90694 | 8.93762 | 20731 ft | 398 kts | 296° |
| 2026-05-04 14:39 | 49.92034 | 8.90075 | 20476 ft | 388 kts | 296° |
| 2026-05-04 14:40 | 49.94631 | 8.82905 | 19985 ft | 372 kts | 295° |
| 2026-05-04 14:40 | 49.95880 | 8.79452 | 19740 ft | 363 kts | 295° |
| 2026-05-04 14:40 | 49.97106 | 8.76072 | 19495 ft | 354 kts | 295° |
| 2026-05-04 14:40 | 49.98302 | 8.72781 | 19261 ft | 346 kts | 295° |
| 2026-05-04 14:41 | 49.99470 | 8.69552 | 19020 ft | 340 kts | 295° |
| 2026-05-04 14:41 | 50.00617 | 8.66368 | 18780 ft | 337 kts | 295° |
| 2026-05-04 14:41 | 50.02894 | 8.60017 | 18319 ft | 335 kts | 295° |
| 2026-05-04 14:42 | 50.05804 | 8.54330 | 17790 ft | 341 kts | 317° |
| 2026-05-04 14:42 | 50.07781 | 8.52254 | 17529 ft | 343 kts | 329° |
| 2026-05-04 14:42 | 50.09992 | 8.50825 | 17265 ft | 344 kts | 339° |
| 2026-05-04 14:43 | 50.12255 | 8.49625 | 16998 ft | 343 kts | 339° |
| 2026-05-04 14:43 | 50.14506 | 8.48414 | 16746 ft | 342 kts | 339° |
| 2026-05-04 14:43 | 50.16726 | 8.47210 | 16490 ft | 340 kts | 339° |